sensor_id;sensor_type;location;lat;lon;timestamp;P1;durP1;ratioP1;P2;durP2;ratioP2
9940;SDS011;5009;50.656;7.188;2023-02-04T03:40:19;14.37;;;4.90;;
9940;SDS011;5009;50.656;7.188;2023-02-04T03:42:47;13.37;;;5.17;;
9940;SDS011;5009;50.656;7.188;2023-02-04T03:45:13;15.77;;;5.47;;
9940;SDS011;5009;50.656;7.188;2023-02-04T03:47:38;13.50;;;5.13;;
9940;SDS011;5009;50.656;7.188;2023-02-04T03:50:04;14.20;;;4.47;;
9940;SDS011;5009;50.656;7.188;2023-02-04T03:52:30;13.80;;;5.17;;
9940;SDS011;5009;50.656;7.188;2023-02-04T03:54:55;13.40;;;4.97;;
9940;SDS011;5009;50.656;7.188;2023-02-04T03:57:21;14.60;;;5.00;;
9940;SDS011;5009;50.656;7.188;2023-02-04T03:59:46;14.00;;;4.63;;
9940;SDS011;5009;50.656;7.188;2023-02-04T04:02:12;12.57;;;4.73;;
9940;SDS011;5009;50.656;7.188;2023-02-04T04:04:37;13.43;;;4.80;;
9940;SDS011;5009;50.656;7.188;2023-02-04T04:07:03;15.93;;;4.90;;
9940;SDS011;5009;50.656;7.188;2023-02-04T04:09:29;12.23;;;4.47;;
9940;SDS011;5009;50.656;7.188;2023-02-04T04:11:54;12.93;;;4.70;;
9940;SDS011;5009;50.656;7.188;2023-02-04T04:14:20;10.83;;;4.30;;
9940;SDS011;5009;50.656;7.188;2023-02-04T04:16:45;12.90;;;4.70;;
9940;SDS011;5009;50.656;7.188;2023-02-04T04:19:11;14.77;;;4.83;;
9940;SDS011;5009;50.656;7.188;2023-02-04T04:21:37;14.50;;;4.53;;
9940;SDS011;5009;50.656;7.188;2023-02-04T04:24:02;15.30;;;4.60;;
9940;SDS011;5009;50.656;7.188;2023-02-04T04:26:28;16.47;;;5.00;;
9940;SDS011;5009;50.656;7.188;2023-02-04T04:28:53;13.63;;;4.47;;
9940;SDS011;5009;50.656;7.188;2023-02-04T04:31:19;15.63;;;4.60;;
9940;SDS011;5009;50.656;7.188;2023-02-04T04:33:44;16.27;;;5.20;;
9940;SDS011;5009;50.656;7.188;2023-02-04T04:36:10;13.33;;;5.03;;
9940;SDS011;5009;50.656;7.188;2023-02-04T04:38:36;12.13;;;4.37;;
9940;SDS011;5009;50.656;7.188;2023-02-04T04:41:01;11.00;;;4.80;;
9940;SDS011;5009;50.656;7.188;2023-02-04T04:43:27;16.17;;;4.70;;
9940;SDS011;5009;50.656;7.188;2023-02-04T04:45:53;13.57;;;4.73;;
9940;SDS011;5009;50.656;7.188;2023-02-04T04:48:18;14.20;;;5.50;;
9940;SDS011;5009;50.656;7.188;2023-02-04T04:50:45;12.27;;;5.13;;
9940;SDS011;5009;50.656;7.188;2023-02-04T04:53:10;13.53;;;4.80;;
9940;SDS011;5009;50.656;7.188;2023-02-04T04:55:36;17.40;;;4.97;;
9940;SDS011;5009;50.656;7.188;2023-02-04T04:58:03;15.77;;;5.67;;
9940;SDS011;5009;50.656;7.188;2023-02-04T05:00:29;18.43;;;5.60;;
9940;SDS011;5009;50.656;7.188;2023-02-04T05:02:55;11.30;;;5.23;;
9940;SDS011;5009;50.656;7.188;2023-02-04T05:05:21;13.90;;;5.53;;
9940;SDS011;5009;50.656;7.188;2023-02-04T05:07:46;14.90;;;5.77;;
9940;SDS011;5009;50.656;7.188;2023-02-04T05:10:12;16.17;;;5.40;;
9940;SDS011;5009;50.656;7.188;2023-02-04T05:12:37;19.70;;;5.87;;
9940;SDS011;5009;50.656;7.188;2023-02-04T05:15:04;14.50;;;5.80;;
9940;SDS011;5009;50.656;7.188;2023-02-04T05:17:30;18.13;;;6.40;;
9940;SDS011;5009;50.656;7.188;2023-02-04T05:19:55;17.17;;;6.43;;
9940;SDS011;5009;50.656;7.188;2023-02-04T05:22:22;18.07;;;5.80;;
9940;SDS011;5009;50.656;7.188;2023-02-04T05:24:47;13.33;;;4.87;;
9940;SDS011;5009;50.656;7.188;2023-02-04T05:27:13;13.63;;;5.43;;
9940;SDS011;5009;50.656;7.188;2023-02-04T05:29:38;18.03;;;5.77;;
9940;SDS011;5009;50.656;7.188;2023-02-04T05:32:04;14.77;;;5.77;;
9940;SDS011;5009;50.656;7.188;2023-02-04T05:34:30;18.30;;;6.03;;
9940;SDS011;5009;50.656;7.188;2023-02-04T05:36:55;13.87;;;6.17;;
9940;SDS011;5009;50.656;7.188;2023-02-04T05:39:21;14.60;;;5.53;;
9940;SDS011;5009;50.656;7.188;2023-02-04T05:41:46;17.30;;;5.83;;
9940;SDS011;5009;50.656;7.188;2023-02-04T05:44:12;18.60;;;6.40;;
9940;SDS011;5009;50.656;7.188;2023-02-04T05:46:37;16.20;;;6.73;;
9940;SDS011;5009;50.656;7.188;2023-02-04T05:49:03;15.63;;;6.10;;
9940;SDS011;5009;50.656;7.188;2023-02-04T05:51:29;13.97;;;6.03;;
9940;SDS011;5009;50.656;7.188;2023-02-04T05:53:55;22.07;;;7.13;;
9940;SDS011;5009;50.656;7.188;2023-02-04T05:56:21;18.43;;;6.33;;
9940;SDS011;5009;50.656;7.188;2023-02-04T05:58:46;21.40;;;6.97;;
9940;SDS011;5009;50.656;7.188;2023-02-04T06:01:13;17.73;;;6.80;;
9940;SDS011;5009;50.656;7.188;2023-02-04T06:03:39;17.40;;;6.80;;
9940;SDS011;5009;50.656;7.188;2023-02-04T06:06:04;16.03;;;6.67;;
9940;SDS011;5009;50.656;7.188;2023-02-04T06:08:30;18.10;;;6.33;;
9940;SDS011;5009;50.656;7.188;2023-02-04T06:10:55;18.27;;;6.67;;
9940;SDS011;5009;50.656;7.188;2023-02-04T06:13:21;16.33;;;6.67;;
9940;SDS011;5009;50.656;7.188;2023-02-04T06:15:47;15.37;;;5.73;;
9940;SDS011;5009;50.656;7.188;2023-02-04T06:18:12;16.00;;;6.43;;
9940;SDS011;5009;50.656;7.188;2023-02-04T06:20:38;16.47;;;6.93;;
9940;SDS011;5009;50.656;7.188;2023-02-04T06:23:03;17.00;;;6.97;;
9940;SDS011;5009;50.656;7.188;2023-02-04T06:25:29;16.30;;;6.07;;
9940;SDS011;5009;50.656;7.188;2023-02-04T06:27:55;21.40;;;6.90;;
9940;SDS011;5009;50.656;7.188;2023-02-04T06:30:21;21.43;;;6.03;;
9940;SDS011;5009;50.656;7.188;2023-02-04T06:32:46;19.00;;;7.20;;
9940;SDS011;5009;50.656;7.188;2023-02-04T06:35:12;15.20;;;6.23;;
9940;SDS011;5009;50.656;7.188;2023-02-04T06:37:39;18.63;;;7.43;;
9940;SDS011;5009;50.656;7.188;2023-02-04T06:40:04;15.73;;;6.30;;
9940;SDS011;5009;50.656;7.188;2023-02-04T06:42:30;17.00;;;6.80;;
9940;SDS011;5009;50.656;7.188;2023-02-04T06:44:56;18.73;;;6.47;;
9940;SDS011;5009;50.656;7.188;2023-02-04T06:47:21;19.00;;;6.63;;
9940;SDS011;5009;50.656;7.188;2023-02-04T06:49:47;15.67;;;6.00;;
9940;SDS011;5009;50.656;7.188;2023-02-04T06:52:12;19.87;;;6.20;;
9940;SDS011;5009;50.656;7.188;2023-02-04T06:54:38;20.13;;;7.33;;
9940;SDS011;5009;50.656;7.188;2023-02-04T06:57:04;13.87;;;6.47;;
9940;SDS011;5009;50.656;7.188;2023-02-04T06:59:32;16.50;;;6.77;;
9940;SDS011;5009;50.656;7.188;2023-02-04T07:01:59;19.73;;;7.40;;
9940;SDS011;5009;50.656;7.188;2023-02-04T07:04:25;15.87;;;6.10;;
9940;SDS011;5009;50.656;7.188;2023-02-04T07:06:50;19.57;;;5.90;;
9940;SDS011;5009;50.656;7.188;2023-02-04T07:09:16;17.93;;;6.47;;
9940;SDS011;5009;50.656;7.188;2023-02-04T07:11:41;19.60;;;6.80;;
9940;SDS011;5009;50.656;7.188;2023-02-04T07:14:07;19.10;;;7.47;;
9940;SDS011;5009;50.656;7.188;2023-02-04T07:16:34;26.50;;;7.40;;
9940;SDS011;5009;50.656;7.188;2023-02-04T07:19:00;15.93;;;6.67;;
9940;SDS011;5009;50.656;7.188;2023-02-04T07:21:25;18.30;;;6.87;;
9940;SDS011;5009;50.656;7.188;2023-02-04T07:23:51;21.33;;;6.70;;
9940;SDS011;5009;50.656;7.188;2023-02-04T07:26:17;14.30;;;6.17;;
9940;SDS011;5009;50.656;7.188;2023-02-04T07:28:42;16.27;;;7.23;;
9940;SDS011;5009;50.656;7.188;2023-02-04T07:31:08;15.17;;;6.50;;
9940;SDS011;5009;50.656;7.188;2023-02-04T07:33:34;17.90;;;7.13;;
9940;SDS011;5009;50.656;7.188;2023-02-04T07:35:59;18.07;;;6.23;;
9940;SDS011;5009;50.656;7.188;2023-02-04T07:38:25;22.67;;;7.13;;
9940;SDS011;5009;50.656;7.188;2023-02-04T07:40:50;15.57;;;6.53;;
9940;SDS011;5009;50.656;7.188;2023-02-04T07:43:16;18.03;;;6.63;;
9940;SDS011;5009;50.656;7.188;2023-02-04T07:45:41;17.80;;;6.80;;
9940;SDS011;5009;50.656;7.188;2023-02-04T07:48:07;23.47;;;6.83;;
9940;SDS011;5009;50.656;7.188;2023-02-04T07:50:34;21.27;;;6.60;;
9940;SDS011;5009;50.656;7.188;2023-02-04T07:53:00;17.63;;;6.53;;
9940;SDS011;5009;50.656;7.188;2023-02-04T07:55:25;17.73;;;6.80;;
9940;SDS011;5009;50.656;7.188;2023-02-04T07:57:51;19.23;;;6.57;;
9940;SDS011;5009;50.656;7.188;2023-02-04T08:00:17;20.77;;;6.87;;
9940;SDS011;5009;50.656;7.188;2023-02-04T08:02:43;19.47;;;6.63;;
9940;SDS011;5009;50.656;7.188;2023-02-04T08:05:08;15.47;;;6.63;;
9940;SDS011;5009;50.656;7.188;2023-02-04T08:07:34;17.13;;;6.73;;
9940;SDS011;5009;50.656;7.188;2023-02-04T08:10:00;16.83;;;6.47;;
9940;SDS011;5009;50.656;7.188;2023-02-04T08:12:26;19.23;;;6.83;;
9940;SDS011;5009;50.656;7.188;2023-02-04T08:14:51;19.67;;;6.80;;
9940;SDS011;5009;50.656;7.188;2023-02-04T08:17:17;17.17;;;6.73;;
9940;SDS011;5009;50.656;7.188;2023-02-04T08:19:42;16.07;;;6.67;;
9940;SDS011;5009;50.656;7.188;2023-02-04T08:22:08;20.93;;;7.00;;
9940;SDS011;5009;50.656;7.188;2023-02-04T08:24:35;14.93;;;6.43;;
9940;SDS011;5009;50.656;7.188;2023-02-04T08:27:01;20.93;;;7.27;;
9940;SDS011;5009;50.656;7.188;2023-02-04T08:29:26;23.03;;;7.30;;
9940;SDS011;5009;50.656;7.188;2023-02-04T08:31:52;18.83;;;7.27;;
9940;SDS011;5009;50.656;7.188;2023-02-04T08:34:17;16.13;;;7.30;;
9940;SDS011;5009;50.656;7.188;2023-02-04T08:36:43;21.47;;;6.70;;
9940;SDS011;5009;50.656;7.188;2023-02-04T08:39:09;21.70;;;6.57;;
9940;SDS011;5009;50.656;7.188;2023-02-04T08:41:36;15.90;;;6.37;;
9940;SDS011;5009;50.656;7.188;2023-02-04T08:44:02;21.00;;;6.37;;
9940;SDS011;5009;50.656;7.188;2023-02-04T08:46:27;15.63;;;6.50;;
9940;SDS011;5009;50.656;7.188;2023-02-04T08:48:53;16.43;;;6.60;;
9940;SDS011;5009;50.656;7.188;2023-02-04T08:51:19;19.27;;;6.37;;
9940;SDS011;5009;50.656;7.188;2023-02-04T08:53:44;23.63;;;6.87;;
9940;SDS011;5009;50.656;7.188;2023-02-04T08:56:10;17.53;;;7.20;;
9940;SDS011;5009;50.656;7.188;2023-02-04T08:58:40;21.70;;;7.87;;
9940;SDS011;5009;50.656;7.188;2023-02-04T09:01:06;28.73;;;9.10;;
9940;SDS011;5009;50.656;7.188;2023-02-04T09:03:32;21.70;;;9.13;;
9940;SDS011;5009;50.656;7.188;2023-02-04T09:05:57;26.63;;;10.83;;
9940;SDS011;5009;50.656;7.188;2023-02-04T09:08:23;24.87;;;10.87;;
9940;SDS011;5009;50.656;7.188;2023-02-04T09:10:48;23.87;;;10.40;;
9940;SDS011;5009;50.656;7.188;2023-02-04T09:13:14;21.47;;;9.33;;
9940;SDS011;5009;50.656;7.188;2023-02-04T09:15:40;23.10;;;9.23;;
9940;SDS011;5009;50.656;7.188;2023-02-04T09:18:06;18.40;;;8.47;;
9940;SDS011;5009;50.656;7.188;2023-02-04T09:20:40;19.63;;;8.27;;
9940;SDS011;5009;50.656;7.188;2023-02-04T09:23:05;26.60;;;9.23;;
9940;SDS011;5009;50.656;7.188;2023-02-04T09:25:36;22.70;;;8.03;;
9940;SDS011;5009;50.656;7.188;2023-02-04T09:28:05;21.73;;;9.07;;
9940;SDS011;5009;50.656;7.188;2023-02-04T09:30:33;23.07;;;8.77;;
9940;SDS011;5009;50.656;7.188;2023-02-04T09:32:59;22.90;;;8.23;;
9940;SDS011;5009;50.656;7.188;2023-02-04T09:35:25;31.10;;;10.80;;
9940;SDS011;5009;50.656;7.188;2023-02-04T09:37:51;29.27;;;10.83;;
9940;SDS011;5009;50.656;7.188;2023-02-04T09:40:16;26.50;;;11.77;;
9940;SDS011;5009;50.656;7.188;2023-02-04T09:42:44;25.33;;;12.00;;
9940;SDS011;5009;50.656;7.188;2023-02-04T09:45:15;27.73;;;11.47;;
9940;SDS011;5009;50.656;7.188;2023-02-04T09:47:43;28.60;;;11.10;;
9940;SDS011;5009;50.656;7.188;2023-02-04T09:50:15;26.60;;;11.73;;
9940;SDS011;5009;50.656;7.188;2023-02-04T09:52:44;26.07;;;12.67;;
9940;SDS011;5009;50.656;7.188;2023-02-04T09:55:13;28.40;;;12.33;;
9940;SDS011;5009;50.656;7.188;2023-02-04T09:57:40;25.70;;;12.43;;
9940;SDS011;5009;50.656;7.188;2023-02-04T10:00:25;26.90;;;11.83;;
9940;SDS011;5009;50.656;7.188;2023-02-04T10:02:52;21.70;;;10.67;;
9940;SDS011;5009;50.656;7.188;2023-02-04T10:05:20;22.23;;;11.03;;
9940;SDS011;5009;50.656;7.188;2023-02-04T10:07:50;29.83;;;11.60;;
9940;SDS011;5009;50.656;7.188;2023-02-04T10:10:17;27.47;;;11.07;;
9940;SDS011;5009;50.656;7.188;2023-02-04T10:12:44;26.80;;;11.73;;
9940;SDS011;5009;50.656;7.188;2023-02-04T10:15:12;33.03;;;13.33;;
9940;SDS011;5009;50.656;7.188;2023-02-04T10:17:39;30.33;;;13.33;;
9940;SDS011;5009;50.656;7.188;2023-02-04T10:20:10;29.50;;;12.43;;
9940;SDS011;5009;50.656;7.188;2023-02-04T10:22:37;28.20;;;12.30;;
9940;SDS011;5009;50.656;7.188;2023-02-04T10:25:10;24.63;;;11.53;;
9940;SDS011;5009;50.656;7.188;2023-02-04T10:27:56;28.03;;;12.47;;
9940;SDS011;5009;50.656;7.188;2023-02-04T10:30:24;25.63;;;11.63;;
9940;SDS011;5009;50.656;7.188;2023-02-04T10:32:51;26.30;;;11.33;;
9940;SDS011;5009;50.656;7.188;2023-02-04T10:35:18;24.80;;;10.97;;
9940;SDS011;5009;50.656;7.188;2023-02-04T10:37:45;24.60;;;10.97;;
9940;SDS011;5009;50.656;7.188;2023-02-04T10:42:56;27.53;;;10.87;;
9940;SDS011;5009;50.656;7.188;2023-02-04T10:45:26;26.77;;;11.33;;
9940;SDS011;5009;50.656;7.188;2023-02-04T10:47:54;27.77;;;10.60;;
9940;SDS011;5009;50.656;7.188;2023-02-04T10:50:22;28.50;;;11.63;;
9940;SDS011;5009;50.656;7.188;2023-02-04T10:52:50;22.43;;;10.30;;
9940;SDS011;5009;50.656;7.188;2023-02-04T10:55:20;23.30;;;11.17;;
9940;SDS011;5009;50.656;7.188;2023-02-04T10:57:47;22.47;;;9.80;;
9940;SDS011;5009;50.656;7.188;2023-02-04T11:00:22;22.90;;;9.90;;
9940;SDS011;5009;50.656;7.188;2023-02-04T11:02:57;28.10;;;10.27;;
9940;SDS011;5009;50.656;7.188;2023-02-04T11:05:25;20.20;;;9.10;;
9940;SDS011;5009;50.656;7.188;2023-02-04T11:07:54;25.57;;;10.70;;
9940;SDS011;5009;50.656;7.188;2023-02-04T11:10:21;24.93;;;10.50;;
9940;SDS011;5009;50.656;7.188;2023-02-04T11:15:37;22.80;;;9.37;;
9940;SDS011;5009;50.656;7.188;2023-02-04T11:18:25;23.90;;;9.60;;
9940;SDS011;5009;50.656;7.188;2023-02-04T11:20:52;20.23;;;8.87;;
9940;SDS011;5009;50.656;7.188;2023-02-04T11:28:45;26.83;;;9.30;;
9940;SDS011;5009;50.656;7.188;2023-02-04T11:34:02;26.00;;;9.50;;
9940;SDS011;5009;50.656;7.188;2023-02-04T11:36:34;24.13;;;9.47;;
9940;SDS011;5009;50.656;7.188;2023-02-04T11:42:21;20.30;;;9.10;;
9940;SDS011;5009;50.656;7.188;2023-02-04T11:44:58;20.73;;;9.07;;
9940;SDS011;5009;50.656;7.188;2023-02-04T11:47:24;23.53;;;9.97;;
9940;SDS011;5009;50.656;7.188;2023-02-04T11:49:58;23.67;;;10.23;;
9940;SDS011;5009;50.656;7.188;2023-02-04T11:52:25;21.63;;;9.53;;
9940;SDS011;5009;50.656;7.188;2023-02-04T11:54:51;22.33;;;10.03;;
9940;SDS011;5009;50.656;7.188;2023-02-04T11:57:18;28.37;;;10.60;;
9940;SDS011;5009;50.656;7.188;2023-02-04T11:59:44;23.47;;;9.90;;
9940;SDS011;5009;50.656;7.188;2023-02-04T12:02:17;21.93;;;9.67;;
9940;SDS011;5009;50.656;7.188;2023-02-04T12:04:57;24.97;;;10.23;;
9940;SDS011;5009;50.656;7.188;2023-02-04T12:07:34;30.57;;;9.60;;
9940;SDS011;5009;50.656;7.188;2023-02-04T12:10:09;20.67;;;9.33;;
9940;SDS011;5009;50.656;7.188;2023-02-04T12:12:48;20.27;;;9.57;;
9940;SDS011;5009;50.656;7.188;2023-02-04T12:15:19;25.93;;;9.80;;
9940;SDS011;5009;50.656;7.188;2023-02-04T12:17:58;22.70;;;9.33;;
9940;SDS011;5009;50.656;7.188;2023-02-04T12:20:31;20.03;;;8.60;;
9940;SDS011;5009;50.656;7.188;2023-02-04T12:22:58;22.03;;;10.13;;
9940;SDS011;5009;50.656;7.188;2023-02-04T12:25:23;24.47;;;10.60;;
9940;SDS011;5009;50.656;7.188;2023-02-04T12:27:50;22.70;;;10.00;;
9940;SDS011;5009;50.656;7.188;2023-02-04T12:30:18;21.80;;;10.00;;
9940;SDS011;5009;50.656;7.188;2023-02-04T12:32:44;22.77;;;9.80;;
9940;SDS011;5009;50.656;7.188;2023-02-04T12:35:10;22.10;;;9.53;;
9940;SDS011;5009;50.656;7.188;2023-02-04T12:37:36;20.73;;;10.30;;
9940;SDS011;5009;50.656;7.188;2023-02-04T12:40:01;25.53;;;8.67;;
9940;SDS011;5009;50.656;7.188;2023-02-04T12:42:27;21.43;;;8.43;;
9940;SDS011;5009;50.656;7.188;2023-02-04T12:44:53;22.60;;;9.10;;
9940;SDS011;5009;50.656;7.188;2023-02-04T12:47:18;17.60;;;8.40;;
9940;SDS011;5009;50.656;7.188;2023-02-04T12:49:44;22.53;;;9.37;;
9940;SDS011;5009;50.656;7.188;2023-02-04T12:52:10;18.63;;;10.20;;
9940;SDS011;5009;50.656;7.188;2023-02-04T12:54:36;21.87;;;9.77;;
9940;SDS011;5009;50.656;7.188;2023-02-04T12:57:01;24.50;;;10.43;;
9940;SDS011;5009;50.656;7.188;2023-02-04T12:59:27;23.03;;;10.53;;
9940;SDS011;5009;50.656;7.188;2023-02-04T13:01:55;21.00;;;9.63;;
9940;SDS011;5009;50.656;7.188;2023-02-04T13:04:21;20.53;;;9.20;;
9940;SDS011;5009;50.656;7.188;2023-02-04T13:06:46;16.80;;;8.97;;
9940;SDS011;5009;50.656;7.188;2023-02-04T13:09:12;22.57;;;9.30;;
9940;SDS011;5009;50.656;7.188;2023-02-04T13:11:38;23.00;;;9.67;;
9940;SDS011;5009;50.656;7.188;2023-02-04T13:14:03;24.33;;;9.53;;
9940;SDS011;5009;50.656;7.188;2023-02-04T13:16:29;23.17;;;9.60;;
9940;SDS011;5009;50.656;7.188;2023-02-04T13:18:54;18.37;;;9.03;;
9940;SDS011;5009;50.656;7.188;2023-02-04T13:21:20;21.93;;;9.17;;
9940;SDS011;5009;50.656;7.188;2023-02-04T13:23:46;21.53;;;9.17;;
9940;SDS011;5009;50.656;7.188;2023-02-04T13:26:11;23.73;;;9.90;;
9940;SDS011;5009;50.656;7.188;2023-02-04T13:28:37;16.67;;;8.30;;
9940;SDS011;5009;50.656;7.188;2023-02-04T13:31:02;22.93;;;8.87;;
9940;SDS011;5009;50.656;7.188;2023-02-04T13:33:28;21.30;;;8.97;;
9940;SDS011;5009;50.656;7.188;2023-02-04T13:35:53;23.53;;;10.40;;
9940;SDS011;5009;50.656;7.188;2023-02-04T13:38:19;19.03;;;8.83;;
9940;SDS011;5009;50.656;7.188;2023-02-04T13:40:45;22.10;;;10.17;;
9940;SDS011;5009;50.656;7.188;2023-02-04T13:43:10;16.83;;;9.17;;
9940;SDS011;5009;50.656;7.188;2023-02-04T13:45:36;25.13;;;10.00;;
9940;SDS011;5009;50.656;7.188;2023-02-04T13:48:01;21.87;;;9.27;;
9940;SDS011;5009;50.656;7.188;2023-02-04T13:50:27;26.90;;;9.77;;
9940;SDS011;5009;50.656;7.188;2023-02-04T13:52:53;21.37;;;8.73;;
9940;SDS011;5009;50.656;7.188;2023-02-04T13:55:19;18.57;;;10.07;;
9940;SDS011;5009;50.656;7.188;2023-02-04T13:57:45;24.80;;;10.47;;
9940;SDS011;5009;50.656;7.188;2023-02-04T14:00:10;22.03;;;9.70;;
9940;SDS011;5009;50.656;7.188;2023-02-04T14:02:36;23.93;;;10.50;;
9940;SDS011;5009;50.656;7.188;2023-02-04T14:05:02;23.60;;;10.70;;
9940;SDS011;5009;50.656;7.188;2023-02-04T14:07:29;23.20;;;10.10;;
9940;SDS011;5009;50.656;7.188;2023-02-04T14:09:54;18.17;;;10.30;;
9940;SDS011;5009;50.656;7.188;2023-02-04T14:12:20;21.63;;;10.37;;
9940;SDS011;5009;50.656;7.188;2023-02-04T14:14:46;24.40;;;9.63;;
9940;SDS011;5009;50.656;7.188;2023-02-04T14:17:11;20.73;;;9.50;;
9940;SDS011;5009;50.656;7.188;2023-02-04T14:19:37;18.53;;;9.90;;
9940;SDS011;5009;50.656;7.188;2023-02-04T14:22:02;22.27;;;9.60;;
9940;SDS011;5009;50.656;7.188;2023-02-04T14:24:28;26.87;;;12.67;;
9940;SDS011;5009;50.656;7.188;2023-02-04T14:26:54;22.37;;;10.40;;
9940;SDS011;5009;50.656;7.188;2023-02-04T14:29:20;25.97;;;10.23;;
9940;SDS011;5009;50.656;7.188;2023-02-04T14:31:45;35.70;;;20.87;;
9940;SDS011;5009;50.656;7.188;2023-02-04T14:34:11;26.93;;;12.60;;
9940;SDS011;5009;50.656;7.188;2023-02-04T14:36:37;49.60;;;27.53;;
9940;SDS011;5009;50.656;7.188;2023-02-04T14:39:02;27.10;;;14.47;;
9940;SDS011;5009;50.656;7.188;2023-02-04T14:41:28;29.00;;;13.00;;
9940;SDS011;5009;50.656;7.188;2023-02-04T14:43:55;22.73;;;12.67;;
9940;SDS011;5009;50.656;7.188;2023-02-04T14:46:21;20.47;;;10.00;;
9940;SDS011;5009;50.656;7.188;2023-02-04T14:48:46;22.73;;;10.00;;
9940;SDS011;5009;50.656;7.188;2023-02-04T14:51:12;21.57;;;10.47;;
9940;SDS011;5009;50.656;7.188;2023-02-04T14:53:38;20.10;;;12.47;;
9940;SDS011;5009;50.656;7.188;2023-02-04T14:56:03;22.50;;;10.80;;
9940;SDS011;5009;50.656;7.188;2023-02-04T14:58:29;23.20;;;10.90;;
9940;SDS011;5009;50.656;7.188;2023-02-04T15:00:55;20.53;;;10.40;;
9940;SDS011;5009;50.656;7.188;2023-02-04T15:03:20;20.37;;;10.57;;
9940;SDS011;5009;50.656;7.188;2023-02-04T15:05:46;19.10;;;10.10;;
9940;SDS011;5009;50.656;7.188;2023-02-04T15:08:12;21.83;;;10.23;;
9940;SDS011;5009;50.656;7.188;2023-02-04T15:10:37;26.80;;;10.73;;
9940;SDS011;5009;50.656;7.188;2023-02-04T15:13:03;24.00;;;10.50;;
9940;SDS011;5009;50.656;7.188;2023-02-04T15:15:28;24.63;;;10.30;;
9940;SDS011;5009;50.656;7.188;2023-02-04T15:17:55;24.33;;;10.20;;
9940;SDS011;5009;50.656;7.188;2023-02-04T15:20:20;24.90;;;10.57;;
9940;SDS011;5009;50.656;7.188;2023-02-04T15:22:46;21.93;;;10.00;;
9940;SDS011;5009;50.656;7.188;2023-02-04T15:25:15;20.93;;;8.93;;
9940;SDS011;5009;50.656;7.188;2023-02-04T15:27:41;18.73;;;9.50;;
9940;SDS011;5009;50.656;7.188;2023-02-04T15:30:07;19.77;;;9.73;;
9940;SDS011;5009;50.656;7.188;2023-02-04T15:32:33;23.40;;;9.70;;
9940;SDS011;5009;50.656;7.188;2023-02-04T15:34:58;20.90;;;9.57;;
9940;SDS011;5009;50.656;7.188;2023-02-04T15:37:24;17.97;;;9.30;;
9940;SDS011;5009;50.656;7.188;2023-02-04T15:39:49;21.23;;;9.73;;
9940;SDS011;5009;50.656;7.188;2023-02-04T15:42:15;15.93;;;8.27;;
9940;SDS011;5009;50.656;7.188;2023-02-04T15:44:40;20.20;;;9.40;;
9940;SDS011;5009;50.656;7.188;2023-02-04T15:47:06;19.17;;;9.07;;
9940;SDS011;5009;50.656;7.188;2023-02-04T15:49:31;24.87;;;10.43;;
9940;SDS011;5009;50.656;7.188;2023-02-04T15:51:57;22.37;;;10.13;;
9940;SDS011;5009;50.656;7.188;2023-02-04T15:54:23;21.93;;;11.30;;
9940;SDS011;5009;50.656;7.188;2023-02-04T15:56:49;22.07;;;10.57;;
9940;SDS011;5009;50.656;7.188;2023-02-04T15:59:14;20.73;;;11.07;;
9940;SDS011;5009;50.656;7.188;2023-02-04T16:01:40;21.50;;;10.67;;
9940;SDS011;5009;50.656;7.188;2023-02-04T16:04:05;19.53;;;10.40;;
9940;SDS011;5009;50.656;7.188;2023-02-04T16:06:31;29.33;;;10.40;;
9940;SDS011;5009;50.656;7.188;2023-02-04T16:08:56;22.93;;;10.83;;
9940;SDS011;5009;50.656;7.188;2023-02-04T16:11:22;22.50;;;10.77;;
9940;SDS011;5009;50.656;7.188;2023-02-04T16:13:48;22.90;;;10.27;;
9940;SDS011;5009;50.656;7.188;2023-02-04T16:16:13;29.87;;;9.57;;
9940;SDS011;5009;50.656;7.188;2023-02-04T16:18:39;22.70;;;10.07;;
9940;SDS011;5009;50.656;7.188;2023-02-04T16:21:04;19.97;;;9.43;;
9940;SDS011;5009;50.656;7.188;2023-02-04T16:23:30;20.47;;;9.73;;
9940;SDS011;5009;50.656;7.188;2023-02-04T16:25:55;19.97;;;9.63;;
9940;SDS011;5009;50.656;7.188;2023-02-04T16:28:21;18.80;;;9.93;;
9940;SDS011;5009;50.656;7.188;2023-02-04T16:30:47;19.77;;;9.33;;
9940;SDS011;5009;50.656;7.188;2023-02-04T16:33:13;21.37;;;9.93;;
9940;SDS011;5009;50.656;7.188;2023-02-04T16:36:01;20.77;;;11.20;;
9940;SDS011;5009;50.656;7.188;2023-02-04T16:38:28;17.47;;;11.23;;
9940;SDS011;5009;50.656;7.188;2023-02-04T16:40:54;19.47;;;10.57;;
9940;SDS011;5009;50.656;7.188;2023-02-04T16:43:20;20.80;;;10.30;;
9940;SDS011;5009;50.656;7.188;2023-02-04T16:45:47;17.80;;;9.87;;
9940;SDS011;5009;50.656;7.188;2023-02-04T16:48:12;21.27;;;10.53;;
9940;SDS011;5009;50.656;7.188;2023-02-04T16:50:38;23.03;;;9.70;;
9940;SDS011;5009;50.656;7.188;2023-02-04T16:53:03;18.53;;;10.13;;
9940;SDS011;5009;50.656;7.188;2023-02-04T16:55:29;16.47;;;10.47;;
9940;SDS011;5009;50.656;7.188;2023-02-04T16:57:55;20.87;;;9.83;;
9940;SDS011;5009;50.656;7.188;2023-02-04T17:00:20;24.27;;;10.37;;
9940;SDS011;5009;50.656;7.188;2023-02-04T17:02:46;21.03;;;9.93;;
9940;SDS011;5009;50.656;7.188;2023-02-04T17:05:12;20.17;;;10.70;;
9940;SDS011;5009;50.656;7.188;2023-02-04T17:07:38;23.80;;;12.37;;
9940;SDS011;5009;50.656;7.188;2023-02-04T17:10:03;28.83;;;13.20;;
9940;SDS011;5009;50.656;7.188;2023-02-04T17:12:29;27.60;;;15.83;;
9940;SDS011;5009;50.656;7.188;2023-02-04T17:14:55;36.77;;;21.97;;
9940;SDS011;5009;50.656;7.188;2023-02-04T17:17:20;27.60;;;14.60;;
9940;SDS011;5009;50.656;7.188;2023-02-04T17:19:46;26.97;;;13.23;;
9940;SDS011;5009;50.656;7.188;2023-02-04T17:22:11;19.83;;;12.10;;
9940;SDS011;5009;50.656;7.188;2023-02-04T17:24:37;22.90;;;12.30;;
9940;SDS011;5009;50.656;7.188;2023-02-04T17:27:07;30.17;;;14.37;;
9940;SDS011;5009;50.656;7.188;2023-02-04T17:29:33;23.33;;;13.03;;
9940;SDS011;5009;50.656;7.188;2023-02-04T17:31:59;27.30;;;12.77;;
9940;SDS011;5009;50.656;7.188;2023-02-04T17:34:24;22.07;;;13.60;;
9940;SDS011;5009;50.656;7.188;2023-02-04T17:36:50;28.03;;;13.80;;
9940;SDS011;5009;50.656;7.188;2023-02-04T17:39:16;24.93;;;12.83;;
9940;SDS011;5009;50.656;7.188;2023-02-04T17:41:41;26.23;;;15.70;;
9940;SDS011;5009;50.656;7.188;2023-02-04T17:44:07;26.83;;;14.77;;
9940;SDS011;5009;50.656;7.188;2023-02-04T17:46:33;22.47;;;13.10;;
9940;SDS011;5009;50.656;7.188;2023-02-04T17:48:59;19.40;;;12.87;;
9940;SDS011;5009;50.656;7.188;2023-02-04T17:51:24;23.97;;;12.30;;
9940;SDS011;5009;50.656;7.188;2023-02-04T17:53:50;24.20;;;14.03;;
9940;SDS011;5009;50.656;7.188;2023-02-04T17:56:16;23.97;;;13.97;;
9940;SDS011;5009;50.656;7.188;2023-02-04T17:58:41;22.37;;;14.70;;
9940;SDS011;5009;50.656;7.188;2023-02-04T18:01:11;24.67;;;15.20;;
9940;SDS011;5009;50.656;7.188;2023-02-04T18:03:39;23.57;;;14.00;;
9940;SDS011;5009;50.656;7.188;2023-02-04T18:06:27;26.10;;;14.70;;
9940;SDS011;5009;50.656;7.188;2023-02-04T18:08:53;31.17;;;14.50;;
9940;SDS011;5009;50.656;7.188;2023-02-04T18:11:27;32.27;;;14.93;;
9940;SDS011;5009;50.656;7.188;2023-02-04T18:13:58;24.53;;;14.50;;
9940;SDS011;5009;50.656;7.188;2023-02-04T18:16:27;31.27;;;21.27;;
9940;SDS011;5009;50.656;7.188;2023-02-04T18:18:55;38.57;;;29.17;;
9940;SDS011;5009;50.656;7.188;2023-02-04T18:21:24;40.17;;;27.10;;
9940;SDS011;5009;50.656;7.188;2023-02-04T18:24:00;44.37;;;29.00;;
9940;SDS011;5009;50.656;7.188;2023-02-04T18:26:27;41.07;;;26.50;;
9940;SDS011;5009;50.656;7.188;2023-02-04T18:28:52;39.77;;;24.63;;
9940;SDS011;5009;50.656;7.188;2023-02-04T18:34:01;33.87;;;22.30;;
9940;SDS011;5009;50.656;7.188;2023-02-04T18:36:40;31.37;;;21.13;;
9940;SDS011;5009;50.656;7.188;2023-02-04T18:39:39;31.37;;;19.63;;
9940;SDS011;5009;50.656;7.188;2023-02-04T18:41:57;33.53;;;20.67;;
9940;SDS011;5009;50.656;7.188;2023-02-04T18:44:34;31.97;;;20.13;;
9940;SDS011;5009;50.656;7.188;2023-02-04T18:47:04;33.83;;;23.53;;
9940;SDS011;5009;50.656;7.188;2023-02-04T18:49:46;40.63;;;29.50;;
9940;SDS011;5009;50.656;7.188;2023-02-04T18:52:18;39.30;;;30.00;;